sensor_id;sensor_type;location;lat;lon;timestamp;pressure;altitude;pressure_sealevel;temperature;humidity
26178;BME280;13924;47.670;10.310;2023-08-20T00:00:38;93690;;;21.9;100.0
26178;BME280;13924;47.670;10.310;2023-08-20T00:15:39;93680;;;22.0;100.0
26178;BME280;13924;47.670;10.310;2023-08-20T00:30:39;93680;;;21.8;100.0
26178;BME280;13924;47.670;10.310;2023-08-20T00:45:41;93690;;;22.0;100.0
26178;BME280;13924;47.670;10.310;2023-08-20T01:00:40;93700;;;21.6;100.0
26178;BME280;13924;47.670;10.310;2023-08-20T01:01:26;93700;;;21.7;100.0
26178;BME280;13924;47.670;10.310;2023-08-20T01:15:41;93710;;;21.1;100.0
26178;BME280;13924;47.670;10.310;2023-08-20T01:30:43;93730;;;21.1;100.0
26178;BME280;13924;47.670;10.310;2023-08-20T01:45:42;93760;;;20.6;100.0
26178;BME280;13924;47.670;10.310;2023-08-20T02:00:44;93800;;;19.7;100.0
26178;BME280;13924;47.670;10.310;2023-08-20T02:15:44;93770;;;19.6;100.0
26178;BME280;13924;47.670;10.310;2023-08-20T02:30:45;93760;;;19.8;100.0
26178;BME280;13924;47.670;10.310;2023-08-20T02:45:44;93750;;;20.2;100.0
26178;BME280;13924;47.670;10.310;2023-08-20T03:00:45;93780;;;20.1;100.0
26178;BME280;13924;47.670;10.310;2023-08-20T03:15:46;93790;;;19.9;100.0
26178;BME280;13924;47.670;10.310;2023-08-20T03:30:46;93810;;;19.8;100.0
26178;BME280;13924;47.670;10.310;2023-08-20T03:45:50;93850;;;19.3;100.0
26178;BME280;13924;47.670;10.310;2023-08-20T04:00:48;93800;;;18.9;100.0
26178;BME280;13924;47.670;10.310;2023-08-20T04:10:12;93820;;;18.6;100.0
26178;BME280;13924;47.670;10.310;2023-08-20T04:25:13;93870;;;18.3;100.0
26178;BME280;13924;47.670;10.310;2023-08-20T04:40:13;93900;;;19.0;100.0
26178;BME280;13924;47.670;10.310;2023-08-20T04:55:13;93890;;;19.1;100.0
26178;BME280;13924;47.670;10.310;2023-08-20T05:10:14;93880;;;18.9;100.0
26178;BME280;13924;47.670;10.310;2023-08-20T05:25:15;93870;;;18.8;100.0
26178;BME280;13924;47.670;10.310;2023-08-20T05:40:19;93910;;;18.6;100.0
26178;BME280;13924;47.670;10.310;2023-08-20T05:55:16;93940;;;19.3;100.0
26178;BME280;13924;47.670;10.310;2023-08-20T06:10:17;93840;;;19.8;100.0
26178;BME280;13924;47.670;10.310;2023-08-20T06:25:18;93780;;;19.9;100.0
26178;BME280;13924;47.670;10.310;2023-08-20T06:40:18;93780;;;20.6;100.0
26178;BME280;13924;47.670;10.310;2023-08-20T06:55:19;93820;;;21.3;100.0
26178;BME280;13924;47.670;10.310;2023-08-20T07:10:20;93820;;;21.6;100.0
26178;BME280;13924;47.670;10.310;2023-08-20T07:25:20;93830;;;22.0;100.0
26178;BME280;13924;47.670;10.310;2023-08-20T07:40:21;93830;;;22.5;100.0
26178;BME280;13924;47.670;10.310;2023-08-20T07:55:21;93830;;;23.0;100.0
26178;BME280;13924;47.670;10.310;2023-08-20T08:10:22;93840;;;23.6;100.0
26178;BME280;13924;47.670;10.310;2023-08-20T08:25:23;93850;;;24.2;100.0
26178;BME280;13924;47.670;10.310;2023-08-20T08:40:28;93850;;;24.6;100.0
26178;BME280;13924;47.670;10.310;2023-08-20T08:55:25;93850;;;25.1;100.0
26178;BME280;13924;47.670;10.310;2023-08-20T09:10:26;93850;;;25.5;100.0
26178;BME280;13924;47.670;10.310;2023-08-20T09:25:25;93840;;;25.9;100.0
26178;BME280;13924;47.670;10.310;2023-08-20T09:40:27;93840;;;26.4;100.0
26178;BME280;13924;47.670;10.310;2023-08-20T09:55:30;93840;;;27.0;100.0
26178;BME280;13924;47.670;10.310;2023-08-20T10:10:27;93830;;;27.9;100.0
26178;BME280;13924;47.670;10.310;2023-08-20T10:25:29;93850;;;28.6;100.0
26178;BME280;13924;47.670;10.310;2023-08-20T10:40:48;93830;;;29.4;100.0
26178;BME280;13924;47.670;10.310;2023-08-20T10:55:30;93830;;;30.2;82.1
26178;BME280;13924;47.670;10.310;2023-08-20T11:10:31;93820;;;31.3;86.9
26178;BME280;13924;47.670;10.310;2023-08-20T11:25:31;93820;;;32.2;85.3
26178;BME280;13924;47.670;10.310;2023-08-20T11:40:32;93820;;;32.8;78.9
26178;BME280;13924;47.670;10.310;2023-08-20T11:55:33;93810;;;33.5;75.9
26178;BME280;13924;47.670;10.310;2023-08-20T12:10:33;93800;;;34.2;68.6
26178;BME280;13924;47.670;10.310;2023-08-20T12:25:34;93800;;;35.1;51.7
26178;BME280;13924;47.670;10.310;2023-08-20T12:40:35;93800;;;35.4;47.7
26178;BME280;13924;47.670;10.310;2023-08-20T12:55:34;93790;;;35.4;45.0
26178;BME280;13924;47.670;10.310;2023-08-20T13:10:36;93780;;;35.7;42.6
26178;BME280;13924;47.670;10.310;2023-08-20T13:25:35;93760;;;35.8;40.3
26178;BME280;13924;47.670;10.310;2023-08-20T13:40:36;93760;;;36.2;43.4
26178;BME280;13924;47.670;10.310;2023-08-20T13:55:36;93740;;;35.8;43.3
26178;BME280;13924;47.670;10.310;2023-08-20T14:10:37;93740;;;35.9;43.3
26178;BME280;13924;47.670;10.310;2023-08-20T14:25:38;93730;;;35.9;41.8
26178;BME280;13924;47.670;10.310;2023-08-20T14:40:43;93730;;;36.2;41.3
26178;BME280;13924;47.670;10.310;2023-08-20T14:55:39;93720;;;36.9;38.0
26178;BME280;13924;47.670;10.310;2023-08-20T15:10:40;93730;;;36.4;37.9
26178;BME280;13924;47.670;10.310;2023-08-20T15:25:40;93710;;;36.1;40.9
26178;BME280;13924;47.670;10.310;2023-08-20T15:40:41;93720;;;36.4;39.1
26178;BME280;13924;47.670;10.310;2023-08-20T15:55:46;93710;;;35.4;39.9
26178;BME280;13924;47.670;10.310;2023-08-20T16:10:43;93700;;;34.6;39.3
26178;BME280;13924;47.670;10.310;2023-08-20T16:25:44;93700;;;34.7;42.3
26178;BME280;13924;47.670;10.310;2023-08-20T16:40:46;93690;;;34.5;43.2
26178;BME280;13924;47.670;10.310;2023-08-20T16:55:50;93710;;;33.9;49.6
26178;BME280;13924;47.670;10.310;2023-08-20T17:10:46;93710;;;33.2;55.8
26178;BME280;13924;47.670;10.310;2023-08-20T17:25:47;93720;;;32.3;65.5
26178;BME280;13924;47.670;10.310;2023-08-20T17:40:50;93720;;;32.3;65.5
26178;BME280;13924;47.670;10.310;2023-08-20T17:55:47;93720;;;30.8;86.2
26178;BME280;13924;47.670;10.310;2023-08-20T18:10:47;93740;;;30.2;97.9
26178;BME280;13924;47.670;10.310;2023-08-20T18:25:51;93750;;;29.7;100.0
26178;BME280;13924;47.670;10.310;2023-08-20T18:40:49;93760;;;29.3;100.0
26178;BME280;13924;47.670;10.310;2023-08-20T18:55:50;93770;;;28.9;100.0
26178;BME280;13924;47.670;10.310;2023-08-20T19:10:52;93800;;;27.5;100.0
26178;BME280;13924;47.670;10.310;2023-08-20T19:25:51;93810;;;27.0;100.0
26178;BME280;13924;47.670;10.310;2023-08-20T19:40:53;93820;;;26.6;100.0
26178;BME280;13924;47.670;10.310;2023-08-20T19:55:55;93850;;;25.7;100.0
26178;BME280;13924;47.670;10.310;2023-08-20T20:10:53;93870;;;24.8;100.0
26178;BME280;13924;47.670;10.310;2023-08-20T20:25:54;93860;;;24.4;100.0
26178;BME280;13924;47.670;10.310;2023-08-20T20:40:54;93870;;;25.0;100.0
26178;BME280;13924;47.670;10.310;2023-08-20T20:56:04;93860;;;24.3;100.0
26178;BME280;13924;47.670;10.310;2023-08-20T21:10:57;93870;;;23.9;100.0
26178;BME280;13924;47.670;10.310;2023-08-20T21:26:05;93870;;;24.0;100.0
26178;BME280;13924;47.670;10.310;2023-08-20T21:41:07;93870;;;23.6;100.0
26178;BME280;13924;47.670;10.310;2023-08-20T21:56:05;93880;;;23.5;100.0
26178;BME280;13924;47.670;10.310;2023-08-20T22:00:32;93870;;;23.3;100.0
26178;BME280;13924;47.670;10.310;2023-08-20T22:15:34;93890;;;22.4;100.0
26178;BME280;13924;47.670;10.310;2023-08-20T22:30:35;93890;;;22.5;100.0
26178;BME280;13924;47.670;10.310;2023-08-20T22:45:35;93910;;;22.2;100.0
26178;BME280;13924;47.670;10.310;2023-08-20T23:00:36;93900;;;22.3;100.0
26178;BME280;13924;47.670;10.310;2023-08-20T23:15:37;93920;;;21.8;100.0
26178;BME280;13924;47.670;10.310;2023-08-20T23:30:41;93890;;;21.8;100.0
26178;BME280;13924;47.670;10.310;2023-08-20T23:45:38;93910;;;21.7;100.0
